Time;durP1;ratioP1;P1;durP2;ratioP2;P2;SDS_P1;SDS_P2;PMS_P1;PMS_P2;Temp;Humidity;BMP_temperature;BMP_pressure;BME280_temperature;BME280_humidity;BME280_pressure;Samples;Min_cycle;Max_cycle;Signal;HPM_P1;HPM_P2
2023/09/14 00:01:00;;;;;;;;;;;20.90;93.50;;;20.90;58.81;99048.50;4936845;28;124205;-82
2023/09/14 00:03:28;;;;;;;;;;;20.80;93.70;;;20.83;59.31;99054.03;4932982;28;122529;-82
2023/09/14 00:05:55;;;;;;;;;;;20.70;93.90;;;20.79;59.44;99056.75;4928882;28;119281;-82
2023/09/14 00:08:21;;;;;;;;;;;20.60;94.10;;;20.74;59.66;99057.09;4931917;28;118666;-83
2023/09/14 00:10:55;;;;;;;;;;;20.60;94.20;;;20.70;59.75;99054.19;4928396;28;124347;-83
2023/09/14 00:13:21;;;;;;;;;;;20.50;94.20;;;20.68;60.03;99064.97;4947104;28;123718;-83
2023/09/14 00:15:47;;;;;;;;;;;20.50;94.30;;;20.66;59.83;99061.75;4933568;28;120635;-83
2023/09/14 00:18:14;;;;;;;;;;;20.50;94.40;;;20.62;60.30;99055.25;4946520;28;119520;-83
2023/09/14 00:20:40;;;;;;;;;;;20.50;94.70;;;20.58;60.22;99057.22;4937166;28;124249;-83
2023/09/14 00:23:07;;;;;;;;;;;20.40;94.70;;;20.55;60.42;99052.31;4943521;28;123782;-82
2023/09/14 00:25:37;;;;;;;;;;;20.40;94.80;;;20.54;60.50;99050.69;4957360;28;119384;-83
2023/09/14 00:28:06;;;;;;;;;;;20.30;94.80;;;20.52;60.55;99047.41;4938548;28;119086;-82
2023/09/14 00:30:33;;;;;;;;;;;20.30;94.90;;;20.48;60.55;99043.75;4946427;28;124209;-82
2023/09/14 00:32:59;;;;;;;;;;;20.30;95.00;;;20.47;60.82;99053.34;4937346;28;124660;-82
2023/09/14 00:35:26;;;;;;;;;;;20.30;95.10;;;20.46;60.97;99057.34;4930807;28;119669;-81
2023/09/14 00:37:52;;;;;;;;;;;20.30;95.10;;;20.47;60.78;99047.72;4938562;28;118719;-82
2023/09/14 00:40:19;;;;;;;;;;;20.30;95.20;;;20.46;60.81;99057.34;4932345;28;124121;-82
2023/09/14 00:42:47;;;;;;;;;;;20.30;95.20;;;20.46;61.08;99060.13;4912117;28;122949;-81
2023/09/14 00:45:15;;;;;;;;;;;20.30;95.30;;;20.42;61.03;99062.09;4941793;28;118664;-82
2023/09/14 00:47:49;;;;;;;;;;;20.20;95.30;;;20.36;60.88;99058.75;4937404;28;118671;-82
2023/09/14 00:50:18;;;;;;;;;;;20.20;95.40;;;20.32;61.02;99057.06;4918015;28;125060;-82
2023/09/14 00:53:07;;;;;;;;;;;20.20;95.50;;;20.26;61.52;99063.00;4925452;28;123703;-81
2023/09/14 00:55:36;;;;;;;;;;;20.10;95.50;;;20.23;61.59;99057.28;4918490;28;119350;-79
2023/09/14 00:58:06;;;;;;;;;;;20.10;95.60;;;20.20;61.73;99058.88;4941408;28;118716;-81
2023/09/14 01:00:32;;;;;;;;;;;20.00;95.70;;;20.18;62.29;99063.22;4952016;28;123427;-81
2023/09/14 01:02:59;;;;;;;;;;;20.00;95.80;;;20.17;61.74;99068.00;4952878;28;123704;-82
2023/09/14 01:05:28;;;;;;;;;;;20.00;95.90;;;20.14;62.04;99063.13;4936414;28;120281;-82
2023/09/14 01:07:56;;;;;;;;;;;20.00;95.90;;;20.14;61.81;99063.13;4937941;28;119805;-80
2023/09/14 01:10:26;;;;;;;;;;;20.00;95.90;;;20.12;62.45;99059.88;4937547;28;124424;-80
2023/09/14 01:12:52;;;;;;;;;;;19.90;96.10;;;20.07;62.23;99066.63;4924013;28;124288;-82
2023/09/14 01:15:27;;;;;;;;;;;19.90;96.20;;;20.01;62.43;99065.28;4922389;28;118325;-84
2023/09/14 01:18:02;;;;;;;;;;;19.80;96.30;;;19.95;62.83;99065.94;4948620;28;118476;-84
2023/09/14 01:21:21;;;;;;;;;;;19.80;96.30;;;19.86;62.53;99068.97;4921874;28;124726;-86
2023/09/14 01:24:05;;;;;;;;;;;19.70;96.30;;;19.80;63.11;99071.25;4922154;28;123689;-85
2023/09/14 01:26:34;;;;;;;;;;;19.60;96.50;;;19.74;63.05;99053.09;4960003;28;118827;-85
2023/09/14 01:29:04;;;;;;;;;;;19.60;96.60;;;19.70;63.29;99060.63;4925533;28;118308;-85
2023/09/14 01:31:31;;;;;;;;;;;19.60;96.70;;;19.67;63.53;99066.16;4944361;28;124313;-85
2023/09/14 01:33:57;;;;;;;;;;;19.50;96.60;;;19.64;63.63;99057.28;4930965;28;123907;-85
2023/09/14 01:36:45;;;;;;;;;;;19.50;96.80;;;19.60;63.65;99075.19;4931038;28;119222;-85
2023/09/14 01:39:15;;;;;;;;;;;19.50;96.90;;;19.57;63.89;99070.31;4950962;28;118033;-85
2023/09/14 01:41:41;;;;;;;;;;;19.40;96.90;;;19.56;63.86;99071.50;4934147;28;124646;-85
2023/09/14 01:44:10;;;;;;;;;;;19.40;97.00;;;19.56;63.85;99077.09;4946348;28;124181;-85
2023/09/14 01:46:37;;;;;;;;;;;19.40;97.10;;;19.53;64.01;99073.03;4944139;28;119535;-87
2023/09/14 01:49:03;;;;;;;;;;;19.40;97.10;;;19.53;63.98;99066.59;4929094;28;118282;-86
2023/09/14 01:51:32;;;;;;;;;;;19.40;97.20;;;19.50;64.23;99068.16;4945385;28;124350;-86
2023/09/14 01:53:58;;;;;;;;;;;19.30;97.20;;;19.52;64.40;99077.00;4935558;28;122763;-86
2023/09/14 01:56:26;;;;;;;;;;;19.30;97.30;;;19.52;64.42;99076.19;4915319;28;118539;-86
2023/09/14 01:58:53;;;;;;;;;;;19.30;97.40;;;19.49;64.49;99080.53;4943292;28;119456;-86
2023/09/14 02:01:19;;;;;;;;;;;19.30;97.50;;;19.47;64.52;99079.28;4933982;28;124257;-85
2023/09/14 02:03:45;;;;;;;;;;;19.30;97.40;;;19.46;64.60;99083.28;4944549;28;124130;-86
2023/09/14 02:06:12;;;;;;;;;;;19.30;97.50;;;19.41;64.41;99085.16;4927851;28;118616;-86
2023/09/14 02:08:38;;;;;;;;;;;19.30;97.60;;;19.40;64.55;99086.34;4933674;28;118746;-85
2023/09/14 02:11:04;;;;;;;;;;;19.20;97.60;;;19.38;64.61;99082.28;4934624;28;124422;-85
2023/09/14 02:13:31;;;;;;;;;;;19.20;97.60;;;19.38;64.65;99079.50;4940247;28;124107;-86
2023/09/14 02:15:57;;;;;;;;;;;19.20;97.60;;;19.38;64.49;99085.91;4934925;28;119479;-86
2023/09/14 02:18:26;;;;;;;;;;;19.20;97.60;;;19.39;64.25;99084.72;4953016;28;118546;-86
2023/09/14 02:20:52;;;;;;;;;;;19.20;97.60;;;19.40;64.25;99080.75;4943488;28;124042;-86
2023/09/14 02:23:18;;;;;;;;;;;19.20;97.60;;;19.41;64.28;99084.34;4927218;28;123922;-85
2023/09/14 02:25:45;;;;;;;;;;;19.20;97.60;;;19.42;64.15;99080.38;4930092;28;120006;-85
2023/09/14 02:28:15;;;;;;;;;;;19.20;97.70;;;19.42;64.01;99080.38;4947055;28;119407;-85
2023/09/14 02:30:46;;;;;;;;;;;19.20;97.60;;;19.42;64.15;99081.22;4944021;28;124828;-85
2023/09/14 02:33:12;;;;;;;;;;;19.20;97.60;;;19.43;64.12;99085.63;4947405;28;123206;-85
2023/09/14 02:35:40;;;;;;;;;;;19.20;97.60;;;19.43;63.94;99085.63;4912047;28;119213;-86
2023/09/14 02:38:07;;;;;;;;;;;19.20;97.60;;;19.43;63.87;99091.22;4939386;28;119268;-86
2023/09/14 02:40:35;;;;;;;;;;;19.20;97.60;;;19.43;63.75;99091.22;4936760;28;124392;-86
2023/09/14 02:43:01;;;;;;;;;;;19.10;97.50;;;19.43;63.80;99084.81;4926267;28;123826;-85
2023/09/14 02:45:28;;;;;;;;;;;19.10;97.50;;;19.46;63.56;99088.88;4933174;28;120623;-85
2023/09/14 02:47:54;;;;;;;;;;;19.20;97.60;;;19.45;63.92;99085.28;4938512;28;119816;-85
2023/09/14 02:50:20;;;;;;;;;;;19.20;97.50;;;19.44;63.55;99092.03;4928087;28;124632;-86
2023/09/14 02:52:47;;;;;;;;;;;19.20;97.50;;;19.41;63.82;99087.97;4931427;28;124096;-86
2023/09/14 02:55:13;;;;;;;;;;;19.20;97.50;;;19.41;63.74;99092.75;4937353;28;119390;-86
2023/09/14 02:57:39;;;;;;;;;;;19.20;97.60;;;19.41;63.76;99087.97;4929323;28;118982;-86
2023/09/14 03:00:12;;;;;;;;;;;19.20;97.60;;;19.41;63.92;99090.78;4951764;28;124163;-85
2023/09/14 03:02:40;;;;;;;;;;;19.20;97.60;;;19.41;63.51;99076.75;4940486;28;123993;-85
2023/09/14 03:05:09;;;;;;;;;;;19.20;97.60;;;19.44;63.63;99089.22;4945403;28;119308;-85
2023/09/14 03:07:36;;;;;;;;;;;19.20;97.60;;;19.43;63.67;99091.22;4933654;28;118584;-85
2023/09/14 03:10:03;;;;;;;;;;;19.20;97.60;;;19.46;63.67;99094.47;4944341;28;124391;-85
2023/09/14 03:12:29;;;;;;;;;;;19.20;97.60;;;19.47;63.44;99096.91;4945136;28;123989;-84
2023/09/14 03:14:56;;;;;;;;;;;19.20;97.50;;;19.51;63.53;99097.00;4941149;28;119408;-85
2023/09/14 03:17:24;;;;;;;;;;;19.20;97.50;;;19.56;63.26;99099.53;4927989;28;118681;-85
2023/09/14 03:19:53;;;;;;;;;;;19.30;97.50;;;19.61;63.10;99099.22;4923880;28;123306;-85
2023/09/14 03:22:19;;;;;;;;;;;19.30;97.50;;;19.66;63.11;99098.97;4946976;28;124080;-85
2023/09/14 03:24:47;;;;;;;;;;;19.30;97.40;;;19.70;62.83;99102.69;4933891;28;119415;-85
2023/09/14 03:27:13;;;;;;;;;;;19.40;97.30;;;19.72;62.58;99094.72;4935634;28;118869;-85
2023/09/14 03:29:45;;;;;;;;;;;19.40;97.20;;;19.72;62.45;99099.50;4933300;28;124388;-85
2023/09/14 03:32:11;;;;;;;;;;;19.40;97.20;;;19.72;62.31;99103.13;4936520;28;123823;-85
2023/09/14 03:34:38;;;;;;;;;;;19.40;97.10;;;19.74;62.33;99105.56;4937992;28;120421;-83
2023/09/14 03:37:04;;;;;;;;;;;19.40;97.10;;;19.76;62.56;99106.00;4944587;28;119531;-86
2023/09/14 03:39:31;;;;;;;;;;;19.40;97.00;;;19.74;62.53;99111.97;4948944;28;123446;-85
2023/09/14 03:41:57;;;;;;;;;;;19.40;97.00;;;19.75;62.30;99113.59;4947390;28;123823;-84
2023/09/14 03:44:28;;;;;;;;;;;19.40;97.00;;;19.77;62.26;99111.25;4933931;28;119740;-85
2023/09/14 03:46:54;;;;;;;;;;;19.50;97.10;;;19.81;62.40;99105.72;4948544;28;118874;-85
2023/09/14 03:49:21;;;;;;;;;;;19.50;97.00;;;19.82;62.10;99102.53;4943838;28;124268;-85
2023/09/14 03:51:47;;;;;;;;;;;19.50;97.00;;;19.84;62.08;99105.78;4941415;28;124460;-84
2023/09/14 03:54:13;;;;;;;;;;;19.50;97.00;;;19.84;62.07;99111.41;4947028;28;119399;-85
2023/09/14 03:56:39;;;;;;;;;;;19.50;96.90;;;19.82;62.17;99108.13;4939044;28;118944;-84
2023/09/14 03:59:06;;;;;;;;;;;19.60;96.90;;;19.81;62.05;99111.31;4944346;28;124469;-85
2023/09/14 04:01:32;;;;;;;;;;;19.50;96.80;;;19.79;62.17;99111.69;4950761;28;124223;-85
2023/09/14 04:03:58;;;;;;;;;;;19.50;96.80;;;19.77;62.05;99110.41;4950745;28;119784;-85
2023/09/14 04:06:24;;;;;;;;;;;19.50;96.80;;;19.75;61.92;99102.38;4947731;28;118881;-85
2023/09/14 04:08:51;;;;;;;;;;;19.50;96.80;;;19.73;62.10;99104.75;4936673;28;124129;-85
2023/09/14 04:11:19;;;;;;;;;;;19.50;96.80;;;19.75;62.07;99112.81;4943269;28;123890;-85
2023/09/14 04:13:47;;;;;;;;;;;19.50;96.90;;;19.77;62.10;99110.41;4950182;28;119609;-85
2023/09/14 04:16:16;;;;;;;;;;;19.50;96.90;;;19.77;62.12;99116.88;4934591;28;118857;-85
2023/09/14 04:18:42;;;;;;;;;;;19.50;96.90;;;19.79;62.18;99114.47;4947697;28;124849;-84
2023/09/14 04:21:08;;;;;;;;;;;19.70;97.00;;;19.79;62.08;99125.69;4930323;28;124596;-85
2023/09/14 04:23:35;;;;;;;;;;;19.50;97.00;;;19.80;62.35;99124.53;4936112;28;120327;-85
2023/09/14 04:26:03;;;;;;;;;;;19.50;97.00;;;19.81;62.12;99122.53;4935559;28;119901;-85
2023/09/14 04:28:30;;;;;;;;;;;19.50;97.00;;;19.82;62.01;99124.16;4939667;28;124426;-84
2023/09/14 04:31:01;;;;;;;;;;;19.50;97.00;;;19.83;62.15;99126.59;4944511;28;124142;-85
2023/09/14 04:33:31;;;;;;;;;;;19.50;97.00;;;19.85;62.29;99129.03;4944004;28;119614;-85
2023/09/14 04:36:05;;;;;;;;;;;19.50;97.00;;;19.86;62.20;99136.28;4929366;28;118839;-84
2023/09/14 04:38:32;;;;;;;;;;;19.60;97.10;;;19.86;62.15;99134.28;4938479;28;124915;-84
2023/09/14 04:41:01;;;;;;;;;;;19.50;97.00;;;19.86;61.73;99134.28;4947823;28;124628;-85
2023/09/14 04:43:29;;;;;;;;;;;19.60;97.10;;;19.86;62.13;99131.47;4955471;28;119513;-85
2023/09/14 04:45:55;;;;;;;;;;;19.60;97.10;;;19.88;61.95;99130.28;4933857;28;119483;-85
2023/09/14 04:48:22;;;;;;;;;;;19.60;97.10;;;19.89;61.93;99140.34;4937113;28;124264;-84
2023/09/14 04:50:48;;;;;;;;;;;19.60;97.00;;;19.89;62.19;99143.97;4934924;28;123896;-84
2023/09/14 04:53:15;;;;;;;;;;;19.60;97.00;;;19.91;61.83;99143.56;4943006;28;119297;-82
2023/09/14 04:55:44;;;;;;;;;;;19.60;97.00;;;19.90;61.86;99139.16;4937002;28;118814;-84
2023/09/14 04:58:11;;;;;;;;;;;19.60;97.00;;;19.89;62.11;99140.34;4936520;28;124788;-83
2023/09/14 05:00:37;;;;;;;;;;;19.60;97.00;;;19.88;61.82;99138.69;4938163;28;124230;-83
2023/09/14 05:03:05;;;;;;;;;;;19.60;97.00;;;19.87;62.05;99129.47;4939484;28;119474;-83
2023/09/14 05:05:34;;;;;;;;;;;19.60;97.00;;;19.86;61.90;99137.09;4946883;28;118038;-83
2023/09/14 05:08:00;;;;;;;;;;;19.60;97.00;;;19.86;62.11;99134.28;4936977;28;124821;-83
2023/09/14 05:10:27;;;;;;;;;;;19.60;97.00;;;19.86;62.08;99136.28;4950173;28;123671;-82
2023/09/14 05:12:53;;;;;;;;;;;19.60;97.00;;;19.87;62.17;99140.69;4938449;28;120083;-82
2023/09/14 05:15:19;;;;;;;;;;;19.60;97.00;;;19.86;61.98;99141.88;4946735;28;119549;-84
2023/09/14 05:17:46;;;;;;;;;;;19.60;97.00;;;19.86;61.89;99148.31;4930193;28;124931;-83
2023/09/14 05:20:14;;;;;;;;;;;19.60;97.00;;;19.86;61.95;99145.50;4935981;28;123827;-85
2023/09/14 05:22:41;;;;;;;;;;;19.60;97.10;;;19.89;62.24;99146.75;4929190;28;119042;-84
2023/09/14 05:25:09;;;;;;;;;;;19.60;97.10;;;19.91;61.98;99155.63;4922489;28;118672;-85
2023/09/14 05:27:39;;;;;;;;;;;19.60;97.10;;;19.92;61.88;99146.03;4945225;28;124748;-84
2023/09/14 05:30:06;;;;;;;;;;;19.60;97.10;;;19.93;61.93;99146.81;4928637;28;124170;-83
2023/09/14 05:32:32;;;;;;;;;;;19.60;97.10;;;19.92;61.88;99150.81;4950373;28;118974;-85
2023/09/14 05:34:59;;;;;;;;;;;19.60;97.00;;;19.93;62.12;99153.25;4939083;28;119038;-81
2023/09/14 05:37:25;;;;;;;;;;;19.60;97.00;;;19.91;61.88;99154.78;4935883;28;123015;-85
2023/09/14 05:39:51;;;;;;;;;;;19.60;97.00;;;19.90;61.85;99158.78;4944578;28;123197;-84
2023/09/14 05:42:18;;;;;;;;;;;19.60;97.00;;;19.90;61.82;99158.78;4935465;28;119271;-84
2023/09/14 05:44:44;;;;;;;;;;;19.60;96.90;;;19.88;62.04;99147.13;4933270;28;118932;-83
2023/09/14 05:47:10;;;;;;;;;;;19.60;96.90;;;19.88;62.06;99149.91;4938215;28;124125;-85
2023/09/14 05:49:37;;;;;;;;;;;19.60;97.00;;;19.85;62.15;99155.09;4939775;28;123564;-82
2023/09/14 05:52:03;;;;;;;;;;;19.60;97.00;;;19.86;62.20;99153.91;4942472;28;119624;-79
2023/09/14 05:54:32;;;;;;;;;;;19.60;97.00;;;19.86;61.92;99162.31;4946401;28;118718;-80
2023/09/14 05:56:58;;;;;;;;;;;19.60;97.00;;;19.89;62.18;99157.16;4933424;28;124492;-79
2023/09/14 05:59:24;;;;;;;;;;;19.60;97.00;;;19.88;62.04;99158.31;4935111;28;124507;-81
2023/09/14 06:01:51;;;;;;;;;;;19.60;97.00;;;19.90;62.27;99161.59;4937321;28;119789;-79
2023/09/14 06:04:22;;;;;;;;;;;19.60;97.20;;;19.91;62.19;99160.41;4934995;28;119483;-79
2023/09/14 06:06:49;;;;;;;;;;;19.60;97.20;;;19.92;62.30;99162.03;4959265;28;124220;-80
2023/09/14 06:09:15;;;;;;;;;;;19.60;97.30;;;19.93;62.39;99164.47;4943489;28;124039;-81
2023/09/14 06:11:42;;;;;;;;;;;19.60;97.30;;;19.97;62.49;99170.19;4927951;28;119806;-80
2023/09/14 06:14:08;;;;;;;;;;;19.70;97.40;;;20.02;62.55;99164.28;4955285;28;118202;-83
2023/09/14 06:16:34;;;;;;;;;;;19.70;97.50;;;20.04;62.61;99170.31;4939165;28;125675;-80
2023/09/14 06:19:00;;;;;;;;;;;19.70;97.40;;;20.08;62.41;99171.22;4927653;28;123893;-80
2023/09/14 06:21:27;;;;;;;;;;;19.70;97.40;;;20.11;62.30;99176.09;4950093;28;118352;-81
2023/09/14 06:23:53;;;;;;;;;;;19.80;97.40;;;20.12;62.08;99172.09;4960324;28;117683;-79
2023/09/14 06:26:19;;;;;;;;;;;19.70;97.30;;;20.09;62.24;99178.44;4944136;28;123933;-78
2023/09/14 06:28:45;;;;;;;;;;;19.70;97.30;;;20.11;61.96;99176.09;4927940;28;123171;-78
2023/09/14 06:31:12;;;;;;;;;;;19.80;97.30;;;20.09;62.07;99178.44;4945051;28;119791;-79
2023/09/14 06:33:38;;;;;;;;;;;19.70;97.30;;;20.10;62.06;99182.91;4938721;28;118837;-78
2023/09/14 06:36:04;;;;;;;;;;;19.80;97.20;;;20.06;61.77;99184.78;4928569;28;124599;-79
2023/09/14 06:38:33;;;;;;;;;;;19.80;97.10;;;20.01;62.14;99177.47;4943756;28;122689;-78
2023/09/14 06:40:59;;;;;;;;;;;19.80;97.10;;;20.02;61.96;99178.31;4932227;28;120024;-82
2023/09/14 06:43:28;;;;;;;;;;;19.80;97.00;;;20.03;62.04;99185.53;4908497;28;118323;-84
2023/09/14 06:45:54;;;;;;;;;;;19.80;97.10;;;20.06;62.02;99184.78;4939481;28;126246;-86
2023/09/14 06:48:20;;;;;;;;;;;19.80;97.00;;;20.05;61.69;99183.97;4925879;28;123157;-85
2023/09/14 06:50:46;;;;;;;;;;;19.80;97.00;;;20.05;61.70;99188.78;4930077;28;121144;-84
2023/09/14 06:53:13;;;;;;;;;;;19.80;96.90;;;20.04;61.63;99184.34;4930467;28;119552;-80
2023/09/14 06:55:39;;;;;;;;;;;19.80;96.90;;;20.05;61.58;99183.19;4936011;28;123889;-85
2023/09/14 06:58:05;;;;;;;;;;;19.80;96.90;;;20.05;61.41;99181.19;4931540;28;124676;-84
2023/09/14 07:00:32;;;;;;;;;;;19.80;96.80;;;20.05;61.73;99180.38;4932820;28;119486;-83
2023/09/14 07:03:01;;;;;;;;;;;19.80;96.80;;;20.05;61.37;99178.38;4919208;28;118648;-85
2023/09/14 07:05:29;;;;;;;;;;;19.80;96.80;;;20.05;61.52;99183.19;4923216;28;124213;-84
2023/09/14 07:07:56;;;;;;;;;;;19.80;96.80;;;20.07;61.16;99178.81;4902221;28;123711;-82
2023/09/14 07:10:22;;;;;;;;;;;19.80;96.80;;;20.10;61.52;99190.50;4921237;28;118481;-82
2023/09/14 07:12:48;;;;;;;;;;;19.80;96.80;;;20.10;61.22;99188.50;4950594;28;119041;-82
2023/09/14 07:15:15;;;;;;;;;;;19.80;96.70;;;20.10;61.33;99187.69;4944138;28;124618;-84
2023/09/14 07:17:41;;;;;;;;;;;19.80;96.70;;;20.09;61.17;99184.06;4931865;28;124498;-83
2023/09/14 07:20:08;;;;;;;;;;;19.80;96.70;;;20.11;61.26;99194.91;4942791;28;120900;-83
2023/09/14 07:22:34;;;;;;;;;;;19.80;96.70;;;20.08;61.34;99191.66;4926711;28;119323;-84
2023/09/14 07:25:01;;;;;;;;;;;19.80;96.70;;;20.10;61.14;99196.13;4912117;28;123311;-83
2023/09/14 07:27:27;;;;;;;;;;;19.80;96.60;;;20.08;61.24;99190.84;4924821;28;124639;-83
2023/09/14 07:29:54;;;;;;;;;;;19.80;96.60;;;20.10;60.94;99199.72;4938548;28;119410;-83
2023/09/14 07:32:20;;;;;;;;;;;19.80;96.60;;;20.11;61.03;99204.16;4931360;28;118452;-83
2023/09/14 07:34:46;;;;;;;;;;;19.80;96.60;;;20.13;60.98;99199.00;4916922;28;124378;-83
2023/09/14 07:37:13;;;;;;;;;;;19.80;96.60;;;20.16;61.23;99195.44;4942745;28;124508;-84
2023/09/14 07:39:39;;;;;;;;;;;19.90;96.60;;;20.22;60.62;99199.56;4957256;28;120604;-83
2023/09/14 07:42:05;;;;;;;;;;;19.90;96.60;;;20.24;60.56;99208.44;4919844;28;119687;-84
2023/09/14 07:44:32;;;;;;;;;;;19.90;96.50;;;20.28;60.53;99205.72;4939439;28;124205;-83
2023/09/14 07:46:58;;;;;;;;;;;19.90;96.40;;;20.28;59.88;99209.34;4921553;28;124385;-83
2023/09/14 07:49:24;;;;;;;;;;;19.90;96.30;;;20.30;59.68;99209.78;4928003;28;122490;-83
2023/09/14 07:51:51;;;;;;;;;;;20.00;96.20;;;20.32;60.01;99217.03;4932980;28;118768;-83
2023/09/14 07:54:17;;;;;;;;;;;20.00;96.10;;;20.35;60.02;99208.69;4925725;28;124188;-82
2023/09/14 07:56:43;;;;;;;;;;;20.00;96.10;;;20.38;59.47;99218.34;4925401;28;123990;-83
2023/09/14 07:59:10;;;;;;;;;;;20.00;96.00;;;20.41;59.45;99220.44;4926950;28;119192;-83
2023/09/14 08:01:39;;;;;;;;;;;20.00;96.00;;;20.41;59.51;99223.22;4931888;28;118810;-82
2023/09/14 08:04:05;;;;;;;;;;;19.60;95.70;;;20.43;59.49;99227.28;4943266;28;125395;-84
2023/09/14 08:06:34;;;;;;;;;;;20.10;95.90;;;20.45;59.18;99229.75;4917308;28;122336;-83
2023/09/14 08:09:01;;;;;;;;;;;20.10;95.80;;;20.45;58.90;99221.34;4919043;28;118451;-82
2023/09/14 08:11:28;;;;;;;;;;;20.10;95.60;;;20.45;58.94;99224.13;4957566;28;119496;-83
2023/09/14 08:13:54;;;;;;;;;;;20.10;95.60;;;20.46;58.63;99226.56;4949511;28;123273;-83
2023/09/14 08:16:20;;;;;;;;;;;20.10;95.60;;;20.47;58.74;99221.75;4947704;28;123899;-82
2023/09/14 08:18:47;;;;;;;;;;;20.10;95.50;;;20.48;58.77;99229.81;4930737;28;119716;-83
2023/09/14 08:21:13;;;;;;;;;;;20.20;95.50;;;20.47;58.51;99225.41;4934911;28;118818;-83
2023/09/14 08:23:40;;;;;;;;;;;20.10;95.40;;;20.49;58.83;99231.44;4942650;28;124102;-82
2023/09/14 08:26:06;;;;;;;;;;;20.20;95.40;;;20.49;58.82;99231.44;4933559;28;123852;-82
2023/09/14 08:28:32;;;;;;;;;;;20.20;95.40;;;20.50;58.50;99232.28;4929160;28;119857;-82
2023/09/14 08:30:59;;;;;;;;;;;20.20;95.40;;;20.52;58.63;99227.06;4962564;28;119404;-83
2023/09/14 08:33:27;;;;;;;;;;;20.20;95.40;;;20.55;58.63;99234.78;4916222;28;124543;-85
2023/09/14 08:35:54;;;;;;;;;;;20.20;95.30;;;20.59;58.60;99234.88;4921449;28;123668;-86
2023/09/14 08:38:21;;;;;;;;;;;20.30;95.40;;;20.66;58.30;99235.84;4944738;28;119433;-85
2023/09/14 08:40:52;;;;;;;;;;;20.30;95.40;;;20.71;58.52;99234.72;4935950;28;119054;-83
2023/09/14 08:43:19;;;;;;;;;;;20.30;95.30;;;20.76;58.41;99236.44;4930580;28;123966;-85
2023/09/14 08:45:45;;;;;;;;;;;20.40;95.30;;;20.78;57.74;99239.69;4916808;28;123985;-84
2023/09/14 08:48:14;;;;;;;;;;;20.40;95.10;;;20.80;57.60;99240.13;4963493;28;119264;-84
2023/09/14 08:50:43;;;;;;;;;;;20.40;95.10;;;20.85;57.62;99242.66;4928028;28;118733;-85
2023/09/14 08:53:12;;;;;;;;;;;20.50;95.10;;;20.88;57.75;99241.91;4926782;28;124165;-84
2023/09/14 08:55:38;;;;;;;;;;;20.50;95.00;;;20.89;57.81;99238.69;4960067;28;122244;-84
2023/09/14 08:58:05;;;;;;;;;;;20.50;94.90;;;20.93;57.42;99241.59;4947714;28;120324;-85
2023/09/14 09:00:32;;;;;;;;;;;20.50;94.90;;;20.95;57.31;99236.41;4932975;28;118875;-85
2023/09/14 09:03:00;;;;;;;;;;;20.60;94.80;;;21.00;57.38;99233.28;4946552;28;124532;-86
2023/09/14 09:05:30;;;;;;;;;;;20.60;94.80;;;21.04;57.23;99231.38;4928750;28;124275;-84
2023/09/14 09:07:59;;;;;;;;;;;20.60;94.80;;;21.11;57.29;99233.50;4914112;28;119466;-85
2023/09/14 09:10:27;;;;;;;;;;;20.70;94.80;;;21.14;57.07;99233.59;4962721;28;119252;-85
2023/09/14 09:13:02;;;;;;;;;;;20.80;94.80;;;21.21;56.80;99237.69;4952403;28;125509;-84
2023/09/14 09:15:30;;;;;;;;;;;20.80;94.70;;;21.23;56.78;99232.53;4928306;28;122877;-85
2023/09/14 09:18:07;;;;;;;;;;;20.80;94.50;;;21.23;56.29;99238.97;4909385;28;120618;-85
2023/09/14 09:20:36;;;;;;;;;;;20.80;94.50;;;21.25;56.73;99230.13;4919259;28;119683;-85
2023/09/14 09:23:03;;;;;;;;;;;20.80;94.40;;;21.28;56.29;99238.66;4945704;28;124323;-86
2023/09/14 09:25:43;;;;;;;;;;;20.80;94.40;;;21.24;56.07;99231.34;4952635;28;124062;-86
2023/09/14 09:28:11;;;;;;;;;;;20.90;94.20;;;21.23;56.25;99224.91;4947826;28;119915;-84
2023/09/14 09:30:38;;;;;;;;;;;20.90;94.20;;;21.26;56.26;99220.53;4943014;28;118520;-82
2023/09/14 09:33:06;;;;;;;;;;;20.90;94.20;;;21.34;56.38;99213.84;4923959;28;123605;-84
2023/09/14 09:35:34;;;;;;;;;;;20.90;94.20;;;21.42;55.89;99220.44;4964500;28;124096;-83
2023/09/14 09:38:16;;;;;;;;;;;21.00;94.20;;;21.47;55.52;99225.75;4960087;28;118850;-84
2023/09/14 09:40:44;;;;;;;;;;;21.00;94.00;;;21.50;55.38;99227.81;4924513;28;119247;-83
2023/09/14 09:43:16;;;;;;;;;;;21.00;93.80;;;21.52;55.54;99226.25;4931736;28;123971;-84
2023/09/14 09:45:46;;;;;;;;;;;21.10;93.80;;;21.54;55.15;99231.50;4928945;28;124560;-85
2023/09/14 09:48:13;;;;;;;;;;;21.10;93.80;;;21.58;55.16;99226.75;4936770;28;119855;-85
2023/09/14 09:50:39;;;;;;;;;;;21.20;93.70;;;21.64;55.03;99228.03;4941003;28;118655;-84
2023/09/14 09:53:14;;;;;;;;;;;21.20;93.70;;;21.70;55.04;99220.09;4948218;28;123558;-84
2023/09/14 09:55:43;;;;;;;;;;;21.30;93.70;;;21.78;55.30;99224.66;4929676;28;124437;-86
2023/09/14 09:58:09;;;;;;;;;;;21.40;93.70;;;21.86;54.89;99223.56;4956766;28;119448;-84
2023/09/14 10:00:37;;;;;;;;;;;21.50;93.70;;;21.88;54.30;99226.81;4943216;28;119038;-84
2023/09/14 10:03:03;;;;;;;;;;;21.40;93.20;;;21.89;54.18;99225.63;4924373;28;124323;-84
2023/09/14 10:05:31;;;;;;;;;;;21.50;93.20;;;21.94;54.13;99230.94;4929158;28;123873;-84
2023/09/14 10:08:00;;;;;;;;;;;21.50;93.10;;;21.95;54.39;99226.94;4914761;28;120337;-84
2023/09/14 10:10:29;;;;;;;;;;;21.60;93.10;;;22.01;54.42;99231.06;4942989;28;119812;-83
2023/09/14 10:12:56;;;;;;;;;;;21.60;93.10;;;22.06;53.80;99227.13;4932219;28;124996;-84
2023/09/14 10:15:26;;;;;;;;;;;21.60;92.90;;;22.12;53.63;99224.78;4956999;28;124062;-83
2023/09/14 10:17:54;;;;;;;;;;;21.70;93.00;;;22.16;53.60;99220.81;4940490;28;119628;-83
2023/09/14 10:20:24;;;;;;;;;;;21.70;93.10;;;22.19;53.04;99219.25;4942542;28;118882;-83
2023/09/14 10:22:51;;;;;;;;;;;21.80;92.70;;;22.22;53.21;99221.34;4942000;28;124240;-84
2023/09/14 10:25:20;;;;;;;;;;;21.80;92.60;;;22.30;53.39;99227.84;4926355;28;123792;-84
2023/09/14 10:27:47;;;;;;;;;;;21.90;92.60;;;22.32;52.85;99219.84;4927073;28;119364;-84
2023/09/14 10:30:20;;;;;;;;;;;21.90;92.30;;;22.35;52.54;99216.25;4910465;28;117901;-83
2023/09/14 10:32:53;;;;;;;;;;;21.90;92.20;;;22.40;52.68;99216.75;4951837;28;124755;-84
2023/09/14 10:35:21;;;;;;;;;;;22.00;92.30;;;22.48;52.60;99215.63;4947492;28;124539;-84
2023/09/14 10:37:49;;;;;;;;;;;22.00;92.20;;;22.50;52.16;99207.63;4944811;28;119412;-84
2023/09/14 10:40:17;;;;;;;;;;;22.00;92.00;;;22.52;52.15;99203.63;4935607;28;119439;-84
2023/09/14 10:42:43;;;;;;;;;;;22.00;91.90;;;22.53;52.27;99211.69;4960645;28;124317;-85
2023/09/14 10:45:11;;;;;;;;;;;22.10;92.00;;;22.63;51.85;99208.19;4929152;28;123227;-84
2023/09/14 10:47:40;;;;;;;;;;;22.10;91.80;;;22.62;51.72;99208.56;4946540;28;120055;-84
2023/09/14 10:50:08;;;;;;;;;;;22.10;91.60;;;22.65;51.38;99205.00;4950310;28;118664;-84
2023/09/14 10:52:35;;;;;;;;;;;22.20;91.50;;;22.66;51.60;99204.59;4944635;28;123921;-85
2023/09/14 10:55:05;;;;;;;;;;;22.20;91.50;;;22.74;51.52;99204.69;4921201;28;125558;-85
2023/09/14 10:57:34;;;;;;;;;;;22.30;91.50;;;22.82;51.09;99204.41;4944439;28;120434;-84
2023/09/14 11:00:04;;;;;;;;;;;22.30;91.50;;;22.88;50.70;99200.03;4953225;28;118751;-85
2023/09/14 11:02:37;;;;;;;;;;;22.40;91.10;;;22.88;50.78;99200.03;4927916;28;124903;-84
2023/09/14 11:05:16;;;;;;;;;;;22.40;91.20;;;22.95;50.88;99190.84;4943037;28;123299;-84
2023/09/14 11:07:49;;;;;;;;;;;22.40;91.20;;;23.07;50.89;99189.78;4943744;28;119369;-84
2023/09/14 11:10:23;;;;;;;;;;;22.50;91.30;;;23.17;50.26;99177.81;4928981;28;118908;-84
2023/09/14 11:12:50;;;;;;;;;;;22.60;91.00;;;23.28;49.68;99184.34;4928191;28;124439;-83